sensor_id;sensor_type;location;lat;lon;timestamp;P1;durP1;ratioP1;P2;durP2;ratioP2
61385;SDS011;47256;18.904;-99.054;2023-04-08T00:00:47;3.92;;;3.10;;
61385;SDS011;47256;18.904;-99.054;2023-04-08T00:03:15;3.50;;;2.75;;
61385;SDS011;47256;18.904;-99.054;2023-04-08T00:05:43;6.95;;;3.85;;
61385;SDS011;47256;18.904;-99.054;2023-04-08T00:08:10;7.63;;;3.45;;
61385;SDS011;47256;18.904;-99.054;2023-04-08T00:10:38;4.13;;;2.92;;
61385;SDS011;47256;18.904;-99.054;2023-04-08T00:13:06;6.18;;;3.90;;
61385;SDS011;47256;18.904;-99.054;2023-04-08T00:15:35;4.10;;;3.47;;
61385;SDS011;47256;18.904;-99.054;2023-04-08T00:18:02;21.15;;;6.25;;
61385;SDS011;47256;18.904;-99.054;2023-04-08T00:20:30;2.45;;;2.25;;
61385;SDS011;47256;18.904;-99.054;2023-04-08T00:22:57;7.63;;;3.20;;
61385;SDS011;47256;18.904;-99.054;2023-04-08T00:25:24;4.25;;;3.05;;
61385;SDS011;47256;18.904;-99.054;2023-04-08T00:27:51;7.53;;;2.63;;
61385;SDS011;47256;18.904;-99.054;2023-04-08T00:30:19;7.55;;;3.35;;
61385;SDS011;47256;18.904;-99.054;2023-04-08T00:32:46;7.78;;;3.20;;
61385;SDS011;47256;18.904;-99.054;2023-04-08T00:35:13;6.60;;;4.47;;
61385;SDS011;47256;18.904;-99.054;2023-04-08T00:37:41;9.07;;;3.67;;
61385;SDS011;47256;18.904;-99.054;2023-04-08T00:40:08;9.77;;;3.20;;
61385;SDS011;47256;18.904;-99.054;2023-04-08T00:42:36;7.53;;;3.92;;
61385;SDS011;47256;18.904;-99.054;2023-04-08T00:45:04;11.25;;;4.65;;
61385;SDS011;47256;18.904;-99.054;2023-04-08T00:47:32;6.05;;;3.25;;
61385;SDS011;47256;18.904;-99.054;2023-04-08T00:50:02;6.60;;;3.60;;
61385;SDS011;47256;18.904;-99.054;2023-04-08T00:52:29;3.75;;;2.92;;
61385;SDS011;47256;18.904;-99.054;2023-04-08T00:54:57;10.38;;;2.95;;
61385;SDS011;47256;18.904;-99.054;2023-04-08T00:57:24;15.18;;;3.33;;
61385;SDS011;47256;18.904;-99.054;2023-04-08T00:59:52;45.40;;;6.32;;
61385;SDS011;47256;18.904;-99.054;2023-04-08T01:03:24;8.60;;;3.67;;
61385;SDS011;47256;18.904;-99.054;2023-04-08T01:05:27;21.20;;;4.22;;
61385;SDS011;47256;18.904;-99.054;2023-04-08T01:08:11;18.60;;;4.25;;
61385;SDS011;47256;18.904;-99.054;2023-04-08T01:10:40;6.30;;;4.03;;
61385;SDS011;47256;18.904;-99.054;2023-04-08T01:13:11;12.80;;;4.40;;
61385;SDS011;47256;18.904;-99.054;2023-04-08T01:15:43;7.63;;;3.80;;
61385;SDS011;47256;18.904;-99.054;2023-04-08T01:18:12;9.80;;;3.95;;
61385;SDS011;47256;18.904;-99.054;2023-04-08T01:20:42;9.00;;;3.65;;
61385;SDS011;47256;18.904;-99.054;2023-04-08T01:25:38;16.02;;;3.55;;
61385;SDS011;47256;18.904;-99.054;2023-04-08T01:28:12;20.88;;;4.53;;
61385;SDS011;47256;18.904;-99.054;2023-04-08T01:30:43;11.00;;;3.75;;
61385;SDS011;47256;18.904;-99.054;2023-04-08T01:33:13;10.50;;;3.72;;
61385;SDS011;47256;18.904;-99.054;2023-04-08T01:35:42;15.18;;;4.97;;
61385;SDS011;47256;18.904;-99.054;2023-04-08T01:38:16;6.50;;;4.40;;
61385;SDS011;47256;18.904;-99.054;2023-04-08T01:40:47;13.63;;;5.43;;
61385;SDS011;47256;18.904;-99.054;2023-04-08T01:43:16;11.30;;;4.45;;
61385;SDS011;47256;18.904;-99.054;2023-04-08T01:45:46;12.00;;;3.83;;
61385;SDS011;47256;18.904;-99.054;2023-04-08T01:48:15;16.95;;;4.80;;
61385;SDS011;47256;18.904;-99.054;2023-04-08T01:50:42;9.82;;;4.10;;
61385;SDS011;47256;18.904;-99.054;2023-04-08T01:53:12;7.60;;;4.05;;
61385;SDS011;47256;18.904;-99.054;2023-04-08T01:55:40;19.65;;;4.47;;
61385;SDS011;47256;18.904;-99.054;2023-04-08T01:58:15;10.68;;;4.28;;
61385;SDS011;47256;18.904;-99.054;2023-04-08T02:00:46;7.55;;;4.50;;
61385;SDS011;47256;18.904;-99.054;2023-04-08T02:03:17;8.38;;;4.63;;
61385;SDS011;47256;18.904;-99.054;2023-04-08T02:05:47;8.02;;;4.32;;
61385;SDS011;47256;18.904;-99.054;2023-04-08T02:08:14;7.70;;;5.18;;
61385;SDS011;47256;18.904;-99.054;2023-04-08T02:10:42;10.15;;;5.20;;
61385;SDS011;47256;18.904;-99.054;2023-04-08T02:13:09;11.57;;;4.72;;
61385;SDS011;47256;18.904;-99.054;2023-04-08T02:15:37;12.98;;;5.28;;
61385;SDS011;47256;18.904;-99.054;2023-04-08T02:18:21;11.05;;;4.30;;
61385;SDS011;47256;18.904;-99.054;2023-04-08T02:21:03;14.63;;;4.00;;
61385;SDS011;47256;18.904;-99.054;2023-04-08T02:23:41;9.52;;;5.30;;
61385;SDS011;47256;18.904;-99.054;2023-04-08T02:26:15;11.88;;;5.63;;
61385;SDS011;47256;18.904;-99.054;2023-04-08T02:28:44;7.53;;;4.68;;
61385;SDS011;47256;18.904;-99.054;2023-04-08T02:31:15;10.27;;;4.47;;
61385;SDS011;47256;18.904;-99.054;2023-04-08T02:33:44;20.70;;;5.32;;
61385;SDS011;47256;18.904;-99.054;2023-04-08T02:36:13;18.10;;;5.53;;
61385;SDS011;47256;18.904;-99.054;2023-04-08T02:38:40;14.25;;;5.47;;
61385;SDS011;47256;18.904;-99.054;2023-04-08T02:41:08;7.03;;;4.85;;
61385;SDS011;47256;18.904;-99.054;2023-04-08T02:43:35;11.38;;;4.82;;
61385;SDS011;47256;18.904;-99.054;2023-04-08T02:46:05;7.55;;;5.22;;
61385;SDS011;47256;18.904;-99.054;2023-04-08T02:48:35;7.93;;;4.78;;
61385;SDS011;47256;18.904;-99.054;2023-04-08T02:51:02;9.57;;;4.38;;
61385;SDS011;47256;18.904;-99.054;2023-04-08T02:53:30;13.23;;;5.00;;
61385;SDS011;47256;18.904;-99.054;2023-04-08T02:55:58;17.80;;;5.47;;
61385;SDS011;47256;18.904;-99.054;2023-04-08T02:58:26;8.70;;;4.63;;
61385;SDS011;47256;18.904;-99.054;2023-04-08T03:00:54;23.13;;;4.35;;
61385;SDS011;47256;18.904;-99.054;2023-04-08T03:03:22;10.55;;;5.18;;
61385;SDS011;47256;18.904;-99.054;2023-04-08T03:05:55;12.73;;;5.10;;
61385;SDS011;47256;18.904;-99.054;2023-04-08T03:08:23;11.13;;;5.47;;
61385;SDS011;47256;18.904;-99.054;2023-04-08T03:10:52;6.38;;;4.55;;
61385;SDS011;47256;18.904;-99.054;2023-04-08T03:13:20;15.88;;;5.38;;
61385;SDS011;47256;18.904;-99.054;2023-04-08T03:15:47;14.88;;;5.13;;
61385;SDS011;47256;18.904;-99.054;2023-04-08T03:18:15;24.70;;;6.50;;
61385;SDS011;47256;18.904;-99.054;2023-04-08T03:20:43;18.67;;;5.72;;
61385;SDS011;47256;18.904;-99.054;2023-04-08T03:23:10;26.00;;;6.10;;
61385;SDS011;47256;18.904;-99.054;2023-04-08T03:25:37;15.85;;;6.20;;
61385;SDS011;47256;18.904;-99.054;2023-04-08T03:28:05;27.02;;;5.68;;
61385;SDS011;47256;18.904;-99.054;2023-04-08T03:30:32;18.00;;;6.72;;
61385;SDS011;47256;18.904;-99.054;2023-04-08T03:33:01;21.95;;;7.03;;
61385;SDS011;47256;18.904;-99.054;2023-04-08T03:35:30;37.63;;;7.47;;
61385;SDS011;47256;18.904;-99.054;2023-04-08T03:37:58;14.73;;;7.15;;
61385;SDS011;47256;18.904;-99.054;2023-04-08T03:40:26;14.52;;;6.65;;
61385;SDS011;47256;18.904;-99.054;2023-04-08T03:42:53;18.73;;;7.47;;
61385;SDS011;47256;18.904;-99.054;2023-04-08T03:45:21;19.73;;;7.95;;
61385;SDS011;47256;18.904;-99.054;2023-04-08T03:47:48;17.23;;;7.75;;
61385;SDS011;47256;18.904;-99.054;2023-04-08T03:50:16;16.52;;;6.88;;
61385;SDS011;47256;18.904;-99.054;2023-04-08T03:52:43;17.27;;;7.03;;
61385;SDS011;47256;18.904;-99.054;2023-04-08T03:55:12;16.00;;;6.45;;
61385;SDS011;47256;18.904;-99.054;2023-04-08T03:57:39;21.13;;;6.53;;
61385;SDS011;47256;18.904;-99.054;2023-04-08T04:00:07;16.17;;;6.80;;
61385;SDS011;47256;18.904;-99.054;2023-04-08T04:02:38;17.88;;;5.97;;
61385;SDS011;47256;18.904;-99.054;2023-04-08T04:05:06;12.82;;;6.05;;
61385;SDS011;47256;18.904;-99.054;2023-04-08T04:07:34;9.73;;;5.53;;
61385;SDS011;47256;18.904;-99.054;2023-04-08T04:10:02;20.75;;;6.18;;
61385;SDS011;47256;18.904;-99.054;2023-04-08T04:12:30;12.95;;;6.40;;
61385;SDS011;47256;18.904;-99.054;2023-04-08T04:14:58;16.27;;;6.43;;
61385;SDS011;47256;18.904;-99.054;2023-04-08T04:17:25;10.98;;;6.80;;
61385;SDS011;47256;18.904;-99.054;2023-04-08T04:19:54;18.58;;;6.95;;
61385;SDS011;47256;18.904;-99.054;2023-04-08T04:22:22;19.90;;;6.78;;
61385;SDS011;47256;18.904;-99.054;2023-04-08T04:24:49;11.32;;;5.93;;
61385;SDS011;47256;18.904;-99.054;2023-04-08T04:27:17;23.27;;;5.78;;
61385;SDS011;47256;18.904;-99.054;2023-04-08T04:29:44;18.42;;;6.32;;
61385;SDS011;47256;18.904;-99.054;2023-04-08T04:32:11;15.88;;;6.50;;
61385;SDS011;47256;18.904;-99.054;2023-04-08T04:34:39;13.55;;;6.20;;
61385;SDS011;47256;18.904;-99.054;2023-04-08T04:37:08;19.17;;;7.03;;
61385;SDS011;47256;18.904;-99.054;2023-04-08T04:39:36;15.65;;;5.85;;
61385;SDS011;47256;18.904;-99.054;2023-04-08T04:42:03;12.63;;;6.78;;
61385;SDS011;47256;18.904;-99.054;2023-04-08T04:44:32;13.52;;;6.50;;
61385;SDS011;47256;18.904;-99.054;2023-04-08T04:46:59;15.20;;;6.82;;
61385;SDS011;47256;18.904;-99.054;2023-04-08T04:49:27;17.02;;;7.22;;
61385;SDS011;47256;18.904;-99.054;2023-04-08T04:51:54;18.85;;;7.68;;
61385;SDS011;47256;18.904;-99.054;2023-04-08T04:54:23;9.75;;;7.00;;
61385;SDS011;47256;18.904;-99.054;2023-04-08T04:56:50;21.02;;;6.20;;
61385;SDS011;47256;18.904;-99.054;2023-04-08T04:59:18;22.58;;;6.90;;
61385;SDS011;47256;18.904;-99.054;2023-04-08T05:01:46;12.98;;;5.70;;
61385;SDS011;47256;18.904;-99.054;2023-04-08T05:04:15;12.02;;;6.13;;
61385;SDS011;47256;18.904;-99.054;2023-04-08T05:06:42;14.88;;;6.05;;
61385;SDS011;47256;18.904;-99.054;2023-04-08T05:09:10;15.43;;;5.55;;
61385;SDS011;47256;18.904;-99.054;2023-04-08T05:11:37;16.75;;;5.88;;
61385;SDS011;47256;18.904;-99.054;2023-04-08T05:14:05;10.18;;;4.38;;
61385;SDS011;47256;18.904;-99.054;2023-04-08T05:16:32;14.20;;;5.25;;
61385;SDS011;47256;18.904;-99.054;2023-04-08T05:19:00;13.35;;;5.07;;
61385;SDS011;47256;18.904;-99.054;2023-04-08T05:21:27;7.78;;;4.72;;
61385;SDS011;47256;18.904;-99.054;2023-04-08T05:23:56;14.15;;;5.47;;
61385;SDS011;47256;18.904;-99.054;2023-04-08T05:26:23;14.18;;;6.90;;
61385;SDS011;47256;18.904;-99.054;2023-04-08T05:28:51;9.80;;;5.75;;
61385;SDS011;47256;18.904;-99.054;2023-04-08T05:31:19;6.95;;;4.68;;
61385;SDS011;47256;18.904;-99.054;2023-04-08T05:33:46;10.63;;;5.60;;
61385;SDS011;47256;18.904;-99.054;2023-04-08T05:36:14;10.25;;;5.88;;
61385;SDS011;47256;18.904;-99.054;2023-04-08T05:38:41;12.75;;;5.60;;
61385;SDS011;47256;18.904;-99.054;2023-04-08T05:41:09;12.45;;;5.57;;
61385;SDS011;47256;18.904;-99.054;2023-04-08T05:43:36;11.50;;;5.22;;
61385;SDS011;47256;18.904;-99.054;2023-04-08T05:46:07;16.58;;;6.53;;
61385;SDS011;47256;18.904;-99.054;2023-04-08T05:48:35;11.43;;;5.68;;
61385;SDS011;47256;18.904;-99.054;2023-04-08T05:51:03;19.38;;;6.65;;
61385;SDS011;47256;18.904;-99.054;2023-04-08T05:53:30;17.90;;;5.90;;
61385;SDS011;47256;18.904;-99.054;2023-04-08T05:55:57;15.93;;;5.60;;
61385;SDS011;47256;18.904;-99.054;2023-04-08T05:58:24;10.15;;;6.15;;
61385;SDS011;47256;18.904;-99.054;2023-04-08T06:00:51;11.65;;;5.47;;
61385;SDS011;47256;18.904;-99.054;2023-04-08T06:03:21;13.63;;;5.13;;
61385;SDS011;47256;18.904;-99.054;2023-04-08T06:05:48;16.63;;;5.68;;
61385;SDS011;47256;18.904;-99.054;2023-04-08T06:08:15;11.55;;;6.15;;
61385;SDS011;47256;18.904;-99.054;2023-04-08T06:10:49;11.88;;;5.10;;
61385;SDS011;47256;18.904;-99.054;2023-04-08T06:13:17;15.68;;;5.97;;
61385;SDS011;47256;18.904;-99.054;2023-04-08T06:15:46;17.50;;;5.32;;
61385;SDS011;47256;18.904;-99.054;2023-04-08T06:18:15;13.60;;;5.68;;
61385;SDS011;47256;18.904;-99.054;2023-04-08T06:20:42;12.73;;;5.68;;
61385;SDS011;47256;18.904;-99.054;2023-04-08T06:23:09;14.10;;;5.22;;
61385;SDS011;47256;18.904;-99.054;2023-04-08T06:25:37;9.38;;;5.28;;
61385;SDS011;47256;18.904;-99.054;2023-04-08T06:28:04;12.93;;;5.75;;
61385;SDS011;47256;18.904;-99.054;2023-04-08T06:30:31;12.60;;;5.35;;
61385;SDS011;47256;18.904;-99.054;2023-04-08T06:32:58;8.18;;;4.85;;
61385;SDS011;47256;18.904;-99.054;2023-04-08T06:35:25;16.85;;;6.28;;
61385;SDS011;47256;18.904;-99.054;2023-04-08T06:37:53;12.05;;;5.68;;
61385;SDS011;47256;18.904;-99.054;2023-04-08T06:40:20;20.30;;;5.85;;
61385;SDS011;47256;18.904;-99.054;2023-04-08T06:42:47;9.80;;;5.75;;
61385;SDS011;47256;18.904;-99.054;2023-04-08T06:45:20;9.40;;;5.05;;
61385;SDS011;47256;18.904;-99.054;2023-04-08T06:47:48;14.18;;;4.95;;
61385;SDS011;47256;18.904;-99.054;2023-04-08T06:50:16;12.00;;;6.20;;
61385;SDS011;47256;18.904;-99.054;2023-04-08T06:52:43;9.35;;;4.95;;
61385;SDS011;47256;18.904;-99.054;2023-04-08T06:55:10;15.00;;;6.03;;
61385;SDS011;47256;18.904;-99.054;2023-04-08T06:57:38;12.45;;;5.13;;
61385;SDS011;47256;18.904;-99.054;2023-04-08T07:00:05;7.43;;;5.68;;
61385;SDS011;47256;18.904;-99.054;2023-04-08T07:02:33;19.58;;;5.38;;
61385;SDS011;47256;18.904;-99.054;2023-04-08T07:05:01;12.70;;;5.97;;
61385;SDS011;47256;18.904;-99.054;2023-04-08T07:07:29;14.82;;;5.03;;
61385;SDS011;47256;18.904;-99.054;2023-04-08T07:09:56;7.18;;;4.03;;
61385;SDS011;47256;18.904;-99.054;2023-04-08T07:12:24;10.68;;;5.45;;
61385;SDS011;47256;18.904;-99.054;2023-04-08T07:14:51;11.23;;;5.15;;
61385;SDS011;47256;18.904;-99.054;2023-04-08T07:17:18;12.40;;;5.22;;
61385;SDS011;47256;18.904;-99.054;2023-04-08T07:19:46;8.95;;;4.50;;
61385;SDS011;47256;18.904;-99.054;2023-04-08T07:22:14;8.88;;;5.32;;
61385;SDS011;47256;18.904;-99.054;2023-04-08T07:24:42;9.60;;;4.60;;
61385;SDS011;47256;18.904;-99.054;2023-04-08T07:27:14;8.68;;;4.25;;
61385;SDS011;47256;18.904;-99.054;2023-04-08T07:29:42;10.45;;;5.13;;
61385;SDS011;47256;18.904;-99.054;2023-04-08T07:32:09;26.10;;;7.05;;
61385;SDS011;47256;18.904;-99.054;2023-04-08T07:34:36;13.40;;;6.50;;
61385;SDS011;47256;18.904;-99.054;2023-04-08T07:37:04;17.80;;;7.35;;
61385;SDS011;47256;18.904;-99.054;2023-04-08T07:39:31;23.27;;;7.53;;
61385;SDS011;47256;18.904;-99.054;2023-04-08T07:41:58;14.30;;;6.50;;
61385;SDS011;47256;18.904;-99.054;2023-04-08T07:44:25;29.08;;;6.72;;
61385;SDS011;47256;18.904;-99.054;2023-04-08T07:46:53;20.13;;;6.93;;
61385;SDS011;47256;18.904;-99.054;2023-04-08T07:49:20;18.50;;;6.43;;
61385;SDS011;47256;18.904;-99.054;2023-04-08T07:51:47;15.93;;;6.40;;
61385;SDS011;47256;18.904;-99.054;2023-04-08T07:54:14;13.73;;;6.88;;
61385;SDS011;47256;18.904;-99.054;2023-04-08T07:56:42;22.85;;;6.65;;
61385;SDS011;47256;18.904;-99.054;2023-04-08T07:59:10;23.60;;;6.90;;
61385;SDS011;47256;18.904;-99.054;2023-04-08T08:01:37;32.00;;;7.82;;
61385;SDS011;47256;18.904;-99.054;2023-04-08T08:04:04;21.08;;;7.47;;
61385;SDS011;47256;18.904;-99.054;2023-04-08T08:06:32;15.98;;;6.90;;
61385;SDS011;47256;18.904;-99.054;2023-04-08T08:08:59;21.95;;;7.28;;
61385;SDS011;47256;18.904;-99.054;2023-04-08T08:11:26;21.67;;;7.80;;
61385;SDS011;47256;18.904;-99.054;2023-04-08T08:13:54;17.40;;;6.65;;
61385;SDS011;47256;18.904;-99.054;2023-04-08T08:16:23;17.67;;;7.03;;
61385;SDS011;47256;18.904;-99.054;2023-04-08T08:18:54;22.73;;;7.07;;
61385;SDS011;47256;18.904;-99.054;2023-04-08T08:21:21;28.50;;;7.50;;
61385;SDS011;47256;18.904;-99.054;2023-04-08T08:23:50;17.55;;;7.10;;
61385;SDS011;47256;18.904;-99.054;2023-04-08T08:26:19;14.85;;;6.28;;
61385;SDS011;47256;18.904;-99.054;2023-04-08T08:28:46;19.20;;;7.43;;
61385;SDS011;47256;18.904;-99.054;2023-04-08T08:31:14;11.60;;;5.63;;
61385;SDS011;47256;18.904;-99.054;2023-04-08T08:33:41;11.27;;;6.03;;
61385;SDS011;47256;18.904;-99.054;2023-04-08T08:36:09;14.18;;;5.57;;
61385;SDS011;47256;18.904;-99.054;2023-04-08T08:38:36;13.40;;;5.13;;
61385;SDS011;47256;18.904;-99.054;2023-04-08T08:41:03;13.45;;;6.55;;
61385;SDS011;47256;18.904;-99.054;2023-04-08T08:43:30;12.85;;;5.65;;
61385;SDS011;47256;18.904;-99.054;2023-04-08T08:46:01;13.77;;;6.22;;
61385;SDS011;47256;18.904;-99.054;2023-04-08T08:48:29;18.48;;;5.25;;
61385;SDS011;47256;18.904;-99.054;2023-04-08T08:50:59;10.98;;;5.70;;
61385;SDS011;47256;18.904;-99.054;2023-04-08T08:53:30;10.93;;;5.65;;
61385;SDS011;47256;18.904;-99.054;2023-04-08T08:55:57;14.00;;;5.60;;
61385;SDS011;47256;18.904;-99.054;2023-04-08T08:58:28;17.73;;;5.85;;
61385;SDS011;47256;18.904;-99.054;2023-04-08T09:00:57;11.40;;;5.32;;
61385;SDS011;47256;18.904;-99.054;2023-04-08T09:03:25;10.48;;;4.60;;
61385;SDS011;47256;18.904;-99.054;2023-04-08T09:05:57;12.10;;;5.38;;
61385;SDS011;47256;18.904;-99.054;2023-04-08T09:10:54;10.55;;;6.00;;
61385;SDS011;47256;18.904;-99.054;2023-04-08T09:13:35;12.98;;;4.80;;
61385;SDS011;47256;18.904;-99.054;2023-04-08T09:16:07;13.80;;;4.78;;
61385;SDS011;47256;18.904;-99.054;2023-04-08T09:18:36;16.33;;;5.32;;
61385;SDS011;47256;18.904;-99.054;2023-04-08T09:21:04;18.95;;;5.80;;
61385;SDS011;47256;18.904;-99.054;2023-04-08T09:26:08;10.40;;;4.53;;
61385;SDS011;47256;18.904;-99.054;2023-04-08T09:28:36;24.40;;;5.80;;
61385;SDS011;47256;18.904;-99.054;2023-04-08T09:33:46;14.70;;;5.38;;
61385;SDS011;47256;18.904;-99.054;2023-04-08T09:36:18;18.60;;;5.57;;
61385;SDS011;47256;18.904;-99.054;2023-04-08T09:38:46;11.63;;;4.30;;
61385;SDS011;47256;18.904;-99.054;2023-04-08T09:41:14;14.45;;;5.40;;
61385;SDS011;47256;18.904;-99.054;2023-04-08T09:43:43;11.13;;;5.68;;
61385;SDS011;47256;18.904;-99.054;2023-04-08T09:46:31;9.85;;;4.55;;
61385;SDS011;47256;18.904;-99.054;2023-04-08T09:51:28;6.40;;;3.35;;
61385;SDS011;47256;18.904;-99.054;2023-04-08T09:54:00;8.38;;;5.05;;
61385;SDS011;47256;18.904;-99.054;2023-04-08T09:56:38;11.82;;;5.13;;
61385;SDS011;47256;18.904;-99.054;2023-04-08T09:59:14;13.02;;;5.28;;
61385;SDS011;47256;18.904;-99.054;2023-04-08T10:01:44;10.05;;;5.00;;
61385;SDS011;47256;18.904;-99.054;2023-04-08T10:04:20;18.17;;;5.38;;
61385;SDS011;47256;18.904;-99.054;2023-04-08T10:06:55;17.45;;;5.05;;
61385;SDS011;47256;18.904;-99.054;2023-04-08T10:09:26;17.77;;;5.88;;
61385;SDS011;47256;18.904;-99.054;2023-04-08T10:11:54;17.95;;;6.57;;
61385;SDS011;47256;18.904;-99.054;2023-04-08T10:14:21;16.98;;;6.65;;
61385;SDS011;47256;18.904;-99.054;2023-04-08T10:20:01;18.10;;;5.57;;
61385;SDS011;47256;18.904;-99.054;2023-04-08T10:27:42;12.75;;;5.13;;
61385;SDS011;47256;18.904;-99.054;2023-04-08T10:32:54;10.32;;;4.85;;
61385;SDS011;47256;18.904;-99.054;2023-04-08T10:35:33;9.05;;;4.85;;
61385;SDS011;47256;18.904;-99.054;2023-04-08T10:38:02;14.77;;;4.63;;
61385;SDS011;47256;18.904;-99.054;2023-04-08T10:40:35;12.13;;;5.75;;
61385;SDS011;47256;18.904;-99.054;2023-04-08T10:43:08;15.63;;;6.28;;
61385;SDS011;47256;18.904;-99.054;2023-04-08T10:45:37;11.20;;;4.38;;
61385;SDS011;47256;18.904;-99.054;2023-04-08T10:48:21;13.57;;;5.85;;
61385;SDS011;47256;18.904;-99.054;2023-04-08T10:53:34;10.90;;;4.80;;
61385;SDS011;47256;18.904;-99.054;2023-04-08T10:58:49;19.85;;;5.93;;
61385;SDS011;47256;18.904;-99.054;2023-04-08T11:01:18;11.52;;;5.30;;
61385;SDS011;47256;18.904;-99.054;2023-04-08T11:03:46;8.35;;;4.72;;
61385;SDS011;47256;18.904;-99.054;2023-04-08T11:06:14;12.70;;;4.60;;
61385;SDS011;47256;18.904;-99.054;2023-04-08T11:08:42;11.27;;;4.63;;
61385;SDS011;47256;18.904;-99.054;2023-04-08T11:11:10;15.32;;;5.45;;
61385;SDS011;47256;18.904;-99.054;2023-04-08T11:13:40;7.97;;;4.53;;
61385;SDS011;47256;18.904;-99.054;2023-04-08T11:16:10;7.07;;;4.07;;
61385;SDS011;47256;18.904;-99.054;2023-04-08T11:18:38;9.82;;;4.55;;
61385;SDS011;47256;18.904;-99.054;2023-04-08T11:21:09;6.60;;;4.28;;
61385;SDS011;47256;18.904;-99.054;2023-04-08T11:23:37;8.63;;;3.88;;
61385;SDS011;47256;18.904;-99.054;2023-04-08T11:26:05;7.93;;;4.10;;
61385;SDS011;47256;18.904;-99.054;2023-04-08T11:28:32;8.02;;;4.20;;
61385;SDS011;47256;18.904;-99.054;2023-04-08T11:31:01;6.20;;;3.85;;
61385;SDS011;47256;18.904;-99.054;2023-04-08T11:33:30;7.65;;;4.60;;
61385;SDS011;47256;18.904;-99.054;2023-04-08T11:35:59;11.27;;;4.43;;
61385;SDS011;47256;18.904;-99.054;2023-04-08T11:38:31;7.15;;;3.88;;
61385;SDS011;47256;18.904;-99.054;2023-04-08T11:40:58;8.40;;;4.22;;
61385;SDS011;47256;18.904;-99.054;2023-04-08T11:43:26;16.17;;;4.70;;
61385;SDS011;47256;18.904;-99.054;2023-04-08T11:45:53;7.22;;;4.25;;
61385;SDS011;47256;18.904;-99.054;2023-04-08T11:48:21;8.95;;;4.35;;
61385;SDS011;47256;18.904;-99.054;2023-04-08T11:51:00;11.80;;;4.65;;
61385;SDS011;47256;18.904;-99.054;2023-04-08T11:53:30;5.30;;;4.07;;
61385;SDS011;47256;18.904;-99.054;2023-04-08T11:55:57;9.85;;;4.70;;
61385;SDS011;47256;18.904;-99.054;2023-04-08T11:58:41;6.63;;;4.57;;
61385;SDS011;47256;18.904;-99.054;2023-04-08T12:01:08;6.35;;;3.20;;
61385;SDS011;47256;18.904;-99.054;2023-04-08T12:03:36;11.35;;;4.03;;
61385;SDS011;47256;18.904;-99.054;2023-04-08T12:06:03;10.55;;;4.88;;
61385;SDS011;47256;18.904;-99.054;2023-04-08T12:08:33;13.80;;;3.88;;
61385;SDS011;47256;18.904;-99.054;2023-04-08T12:11:00;9.90;;;5.00;;
61385;SDS011;47256;18.904;-99.054;2023-04-08T12:13:28;13.55;;;4.28;;
61385;SDS011;47256;18.904;-99.054;2023-04-08T12:15:58;10.00;;;4.38;;
61385;SDS011;47256;18.904;-99.054;2023-04-08T12:18:25;14.82;;;4.82;;
61385;SDS011;47256;18.904;-99.054;2023-04-08T12:20:52;10.63;;;4.80;;
61385;SDS011;47256;18.904;-99.054;2023-04-08T12:23:19;14.85;;;5.15;;
61385;SDS011;47256;18.904;-99.054;2023-04-08T12:25:47;11.98;;;4.65;;
61385;SDS011;47256;18.904;-99.054;2023-04-08T12:28:14;6.25;;;4.47;;
61385;SDS011;47256;18.904;-99.054;2023-04-08T12:30:42;16.40;;;4.45;;
61385;SDS011;47256;18.904;-99.054;2023-04-08T12:33:09;14.55;;;4.85;;
61385;SDS011;47256;18.904;-99.054;2023-04-08T12:35:36;9.45;;;5.38;;
61385;SDS011;47256;18.904;-99.054;2023-04-08T12:38:04;7.57;;;4.97;;
61385;SDS011;47256;18.904;-99.054;2023-04-08T12:40:31;24.00;;;6.78;;
61385;SDS011;47256;18.904;-99.054;2023-04-08T12:42:58;11.88;;;6.60;;
61385;SDS011;47256;18.904;-99.054;2023-04-08T12:45:26;22.77;;;7.15;;
61385;SDS011;47256;18.904;-99.054;2023-04-08T12:47:53;14.50;;;6.07;;
61385;SDS011;47256;18.904;-99.054;2023-04-08T12:50:20;14.38;;;6.85;;
61385;SDS011;47256;18.904;-99.054;2023-04-08T12:52:48;19.38;;;6.55;;
61385;SDS011;47256;18.904;-99.054;2023-04-08T12:55:15;16.35;;;6.25;;
61385;SDS011;47256;18.904;-99.054;2023-04-08T12:57:43;22.13;;;6.47;;
61385;SDS011;47256;18.904;-99.054;2023-04-08T13:00:13;13.60;;;5.88;;
61385;SDS011;47256;18.904;-99.054;2023-04-08T13:02:40;8.90;;;5.10;;
61385;SDS011;47256;18.904;-99.054;2023-04-08T13:05:09;14.73;;;6.03;;
61385;SDS011;47256;18.904;-99.054;2023-04-08T13:07:36;10.73;;;4.97;;
61385;SDS011;47256;18.904;-99.054;2023-04-08T13:10:04;11.57;;;5.45;;
61385;SDS011;47256;18.904;-99.054;2023-04-08T13:12:32;12.20;;;5.80;;
61385;SDS011;47256;18.904;-99.054;2023-04-08T13:14:59;11.98;;;6.18;;
61385;SDS011;47256;18.904;-99.054;2023-04-08T13:17:26;13.82;;;5.03;;
61385;SDS011;47256;18.904;-99.054;2023-04-08T13:19:53;11.55;;;5.22;;
61385;SDS011;47256;18.904;-99.054;2023-04-08T13:22:21;18.27;;;5.40;;
61385;SDS011;47256;18.904;-99.054;2023-04-08T13:24:48;18.33;;;6.13;;
61385;SDS011;47256;18.904;-99.054;2023-04-08T13:27:16;22.70;;;6.72;;
61385;SDS011;47256;18.904;-99.054;2023-04-08T13:29:43;15.80;;;6.18;;
61385;SDS011;47256;18.904;-99.054;2023-04-08T13:32:10;12.77;;;6.10;;
61385;SDS011;47256;18.904;-99.054;2023-04-08T13:34:37;14.02;;;6.20;;
61385;SDS011;47256;18.904;-99.054;2023-04-08T13:37:05;14.68;;;6.80;;
61385;SDS011;47256;18.904;-99.054;2023-04-08T13:39:33;10.48;;;6.60;;
61385;SDS011;47256;18.904;-99.054;2023-04-08T13:42:00;10.05;;;5.97;;
61385;SDS011;47256;18.904;-99.054;2023-04-08T13:44:27;21.50;;;6.43;;
61385;SDS011;47256;18.904;-99.054;2023-04-08T13:46:55;16.65;;;6.32;;
61385;SDS011;47256;18.904;-99.054;2023-04-08T13:49:22;11.10;;;6.25;;
61385;SDS011;47256;18.904;-99.054;2023-04-08T13:51:50;19.73;;;7.32;;
61385;SDS011;47256;18.904;-99.054;2023-04-08T13:54:18;12.77;;;6.68;;
61385;SDS011;47256;18.904;-99.054;2023-04-08T13:56:46;11.60;;;5.78;;
61385;SDS011;47256;18.904;-99.054;2023-04-08T13:59:14;10.23;;;5.32;;
61385;SDS011;47256;18.904;-99.054;2023-04-08T14:01:41;22.83;;;7.57;;
61385;SDS011;47256;18.904;-99.054;2023-04-08T14:04:08;14.18;;;6.63;;
61385;SDS011;47256;18.904;-99.054;2023-04-08T14:06:35;20.00;;;6.78;;
61385;SDS011;47256;18.904;-99.054;2023-04-08T14:09:03;32.55;;;8.38;;
61385;SDS011;47256;18.904;-99.054;2023-04-08T14:11:30;24.55;;;6.90;;
61385;SDS011;47256;18.904;-99.054;2023-04-08T14:13:57;27.20;;;14.88;;
61385;SDS011;47256;18.904;-99.054;2023-04-08T14:16:25;48.83;;;24.17;;
61385;SDS011;47256;18.904;-99.054;2023-04-08T14:18:54;49.53;;;26.17;;
61385;SDS011;47256;18.904;-99.054;2023-04-08T14:21:22;67.07;;;30.25;;
61385;SDS011;47256;18.904;-99.054;2023-04-08T14:23:49;51.65;;;28.52;;
61385;SDS011;47256;18.904;-99.054;2023-04-08T14:26:17;56.80;;;28.77;;
61385;SDS011;47256;18.904;-99.054;2023-04-08T14:28:44;47.20;;;23.38;;
61385;SDS011;47256;18.904;-99.054;2023-04-08T14:31:12;63.47;;;23.45;;
61385;SDS011;47256;18.904;-99.054;2023-04-08T14:33:40;39.50;;;19.15;;
61385;SDS011;47256;18.904;-99.054;2023-04-08T14:36:08;36.85;;;18.42;;
61385;SDS011;47256;18.904;-99.054;2023-04-08T14:38:36;36.80;;;14.15;;
61385;SDS011;47256;18.904;-99.054;2023-04-08T14:41:04;32.60;;;15.98;;
61385;SDS011;47256;18.904;-99.054;2023-04-08T14:43:32;19.95;;;10.02;;
61385;SDS011;47256;18.904;-99.054;2023-04-08T14:45:59;19.77;;;9.32;;
61385;SDS011;47256;18.904;-99.054;2023-04-08T14:48:27;27.05;;;9.63;;